Latest Coastal Weather Observations for Sydney Airport

IDN60701

Issued at 6:05 pm EDT Tuesday 21 October 2014 (issued every 10 minutes, with the page automatically refreshed every 10 minutes)

About coastal observations | Map of coastal stations | Coastal observations for NSW | Marine services | Other Formats
Station Details ID: 066037 Name: SYDNEY AIRPORT AMO Lat: -33.95 Lon: 151.17 Height: 6.0 m
Data from the previous 72 hours. | See also: Recent months at Sydney Airport
Date/Time
EDT
Temp

°C
Wind Pressure Rain
since 9am
mm
Weather Cloud Vis
km
Sea
Height
m
Swell
Dir
 
Speed
knots
Gust
knots
hPa Trend Height
m
Period
s
Dir
21/05:30pm 17.2 ENE 9 13 1030.2 - 0.0 - Partly cloudy 10 - - - -
21/05:00pm 17.4 E 10 12 1030.2 - 0.0 - Partly cloudy 10 - - - -
21/04:30pm 17.4 E 10 13 1030.1 - 0.0 - Partly cloudy 10 - - - -
21/04:00pm 18.4 ENE 9 12 1030.2 - 0.0 - Partly cloudy 10 - - - -
21/03:30pm 17.7 E 11 14 1030.4 - 0.0 - Partly cloudy 10 - - - -
21/03:00pm 18.3 ENE 10 15 1030.8 F 0.0 Fine Mostly cloudy 30 - - - -
21/02:30pm 17.7 E 9 14 1031.1 - 0.0 - Partly cloudy 10 - - - -
21/02:00pm 17.5 ENE 10 14 1031.6 - 0.0 - Partly cloudy 10 - - - -
21/01:30pm 17.8 E 9 14 1031.9 - 0.0 - Mostly clear 10 - - - -
21/01:00pm 17.9 E 12 16 1032.3 - 0.0 - Mostly clear 10 - - - -
21/12:30pm 17.3 E 12 16 1032.5 - 0.0 - Mostly clear 10 - - - -
21/12:00pm 17.4 E 11 15 1032.8 R 0.0 Fine Cloudy 30 - - - -
21/11:30am 17.5 E 9 14 1032.9 - 0.0 - Mostly cloudy 10 - - - -
21/11:00am 17.6 E 9 13 1033.0 - 0.0 - Mostly cloudy 10 - - - -
21/10:30am 17.8 E 11 16 1032.9 - 0.0 - Mostly cloudy 10 - - - -
21/10:00am 17.3 ESE 11 15 1033.0 - 0.0 - Partly cloudy 10 - - - -
21/09:30am 17.4 ESE 9 13 1032.8 - 0.0 - Partly cloudy 10 - - - -
21/09:00am 17.2 ESE 10 16 1032.6 R 0.0 Fine Cloudy 30 - - - -
21/08:30am 17.0 E 10 14 1032.3 - 0.0 - Mostly cloudy 10 - - - -
21/08:00am 16.6 ESE 9 14 1032.1 - 0.0 - Mostly cloudy 10 - - - -
21/07:30am 16.6 ESE 11 15 1031.8 - 0.0 - Mostly cloudy 10 - - - -
21/07:00am 16.3 ESE 8 10 1031.6 - 0.0 - Mostly cloudy 10 - - - -
21/06:30am 16.0 SE 10 12 1031.2 - 0.0 - Partly cloudy 10 - - - -
21/06:00am 15.9 ESE 13 17 1031.0 F 0.0 Distant precip. Cloudy 25 - - - -
21/05:30am 15.7 ESE 13 15 1030.9 - 0.0 - Mostly clear 10 - - - -
21/05:00am 16.0 SE 8 10 1030.8 - 0.0 - Mostly clear 10 - - - -
21/04:30am 16.1 SSE 9 12 1030.8 - 0.0 - Mostly clear 10 - - - -
21/04:00am 15.8 SE 8 11 1030.9 - 0.0 - Partly cloudy 10 - - - -
21/03:30am 15.3 E 8 12 1031.1 - 0.0 Drizzle Mostly clear 10 - - - -
21/03:00am 15.9 SE 8 12 1031.2 R 0.0 Recent precip. Cloudy 20 - - - -
21/02:30am 15.4 SE 11 15 1031.3 - 0.0 Drizzle Mostly clear 10 - - - -
21/02:00am 15.8 ESE 11 14 1031.3 - 0.0 - Mostly clear 10 - - - -
21/01:30am 16.5 SE 12 16 1031.3 - 0.0 Showers Mostly clear 10 - - - -
21/01:00am 16.1 ESE 11 14 1031.4 - 0.0 - Mostly clear 10 - - - -
21/12:30am 15.9 NE 4 8 1031.6 - 0.0 - Mostly cloudy 10 - - - -
21/12:00am 15.4 E 5 8 1031.9 F 0.0 Showers Cloudy 20 - - - -
 
Date/Time
EDT
Temp

°C
Wind Pressure Rain
since 9am
mm
Weather Cloud Vis
km
Sea
Height
m
Swell
Dir
 
Speed
knots
Gust
knots
hPa Trend Height
m
Period
s
Dir
20/11:30pm 15.5 ESE 10 13 1032.1 - 0.0 Showers Mostly clear 10 - - - -
20/11:00pm 16.6 SE 14 20 1031.9 - 0.0 - Mostly clear 10 - - - -
20/10:30pm 17.3 ESE 11 15 1031.8 - 0.0 Drizzle Partly cloudy 10 - - - -
20/10:00pm 17.1 SE 12 15 1031.8 - 0.0 - Mostly clear 10 - - - -
20/09:30pm 17.0 SE 13 16 1031.8 - 0.0 Drizzle Partly cloudy 10 - - - -
20/09:00pm 16.9 SE 11 15 1031.7 S 0.0 Recent precip. Cloudy 20 - - - -
20/08:30pm 16.9 SE 11 14 1031.3 - 0.0 - Partly cloudy 10 - - - -
20/08:00pm 17.0 SE 14 17 1030.9 - 0.0 - Partly cloudy 10 - - - -
20/07:30pm 16.7 SE 12 16 1030.6 - 0.0 Showers Partly cloudy 10 - - - -
20/07:00pm 17.3 SSE 13 16 1030.4 - 0.0 - Mostly clear 10 - - - -
20/06:30pm 17.2 SSE 16 19 1030.2 - 0.0 - Partly cloudy 10 - - - -
20/06:00pm 17.4 SSE 16 21 1029.9 R 0.0 Fine Cloudy 25 - - - -
20/05:30pm 17.3 S 16 21 1029.8 - 0.0 - Mostly clear 10 - - - -
20/05:00pm 17.2 SSE 17 21 1029.8 - 0.0 - Partly cloudy 10 - - - -
20/04:30pm 17.1 S 16 21 1029.7 - 0.0 - Mostly clear 10 - - - -
20/04:00pm 17.2 S 17 27 1029.8 - 0.0 - Mostly cloudy 9 - - - -
20/03:57pm 17.1 SSE 15 25 1029.8 - 0.0 - Mostly cloudy 10 - - - -
20/03:30pm 16.6 S 17 21 1029.9 - 0.0 Showers Mostly clear 9 - - - -
20/03:00pm 17.7 S 17 22 1029.7 R 0.0 Recent precip. Cloudy 10 - - - -
20/02:30pm 16.7 S 20 26 1029.9 - 0.0 Showers Mostly clear 10 - - - -
20/02:00pm 17.2 S 19 23 1030.1 - 0.0 - Mostly cloudy 10 - - - -
20/01:30pm 16.7 S 20 27 1030.2 - 0.0 Showers Mostly clear 9 - - - -
20/01:00pm 18.1 S 17 21 1030.0 - 0.0 - Partly cloudy 10 - - - -
20/12:30pm 18.6 S 19 25 1030.0 - 0.0 - Mostly clear 10 - - - -
20/12:00pm 18.2 S 21 29 1030.2 R 0.0 Distant precip. Mostly cloudy 15 - - - -
20/11:30am 18.9 S 23 29 1030.3 - 0.0 - Partly cloudy 10 - - - -
20/11:00am 18.4 S 24 29 1030.3 - 0.0 - Partly cloudy 10 - - - -
20/10:30am 18.1 S 23 30 1030.3 - 0.0 - Mostly clear 10 - - - -
20/10:00am 18.2 S 27 33 1029.9 - 0.0 - Mostly clear 10 - - - -
20/09:30am 17.8 S 25 35 1029.3 - 0.0 - Partly cloudy 10 - - - -
20/09:00am 18.0 S 27 37 1028.6 R 0.0 Haze Mostly cloudy 15 - - - -
20/08:30am 17.8 S 26 36 1027.9 - 0.0 - Partly cloudy 10 - - - -
20/08:14am 17.9 S 28 38 1027.4 - 0.0 - Partly cloudy 10 - - - -
20/08:00am 17.8 S 29 37 1027.1 - 0.0 - Mostly clear 10 - - - -
20/07:30am 17.9 S 28 38 1026.2 - 0.0 - Mostly clear 10 - - - -
20/07:27am 17.9 S 28 38 1026.1 - 0.0 - Mostly clear 10 - - - -
20/07:00am 17.9 S 30 39 1025.6 - 0.0 - Partly cloudy 10 - - - -
20/06:48am 17.9 S 29 39 1025.3 - 0.0 - Mostly clear 10 - - - -
20/06:30am 17.9 S 31 37 1024.8 - 0.0 - Mostly clear 10 - - - -
20/06:11am 18.1 S 32 42 1024.1 - 0.0 - Mostly cloudy 10 - - - -
20/06:00am 18.3 S 33 41 1023.8 R 0.0 Haze Mostly cloudy 15 - - - -
20/05:52am 18.5 S 30 39 1023.5 - 0.0 - Partly cloudy 10 - - - -
20/05:37am 18.7 SW 18 31 1023.3 - 0.0 - - 10 - - - -
20/05:30am 16.6 WSW 14 18 1023.2 - 0.0 - - 10 - - - -
20/05:00am 16.2 WNW 4 5 1021.4 - 0.0 - - 10 - - - -
20/04:30am 16.2 NNW 5 6 1021.0 - 0.0 - - 10 - - - -
20/04:00am 16.7 N 7 8 1021.0 - 0.0 - - 10 - - - -
20/03:30am 16.8 NNW 6 7 1021.4 - 0.0 - - 10 - - - -
20/03:00am 16.7 NW 5 6 1021.5 F 0.0 Fine Mostly clear 30 - - - -
20/02:30am 17.3 NNW 5 7 1021.6 - 0.0 - - 10 - - - -
20/02:00am 18.1 NNW 5 5 1021.9 - 0.0 - - 10 - - - -
20/01:30am 18.2 N 5 5 1022.0 - 0.0 - - 10 - - - -
20/01:00am 18.3 N 6 7 1022.3 - 0.0 - - 10 - - - -
20/12:30am 18.8 NW 7 8 1022.9 - 0.0 - - 10 - - - -
20/12:00am 18.4 WNW 5 6 1022.9 F 0.0 Fine Mostly clear 30 - - - -
 
Date/Time
EDT
Temp

°C
Wind Pressure Rain
since 9am
mm
Weather Cloud Vis
km
Sea
Height
m
Swell
Dir
 
Speed
knots
Gust
knots
hPa Trend Height
m
Period
s
Dir
19/11:30pm 19.2 NW 5 6 1023.0 - 0.0 - - 10 - - - -
19/11:00pm 19.9 N 5 6 1022.9 - 0.0 - - 10 - - - -
19/10:30pm 19.9 N 8 11 1022.9 - 0.0 - - 10 - - - -
19/10:00pm 20.6 N 11 14 1023.0 - 0.0 - - 10 - - - -
19/09:30pm 20.3 NNE 13 17 1023.0 - 0.0 - - 10 - - - -
19/09:00pm 20.2 NNE 15 20 1022.6 F 0.0 Fine Mostly clear 30 - - - -
19/08:30pm 20.5 NNE 15 19 1022.5 - 0.0 - - 10 - - - -
19/08:00pm 20.5 NNE 18 21 1022.1 - 0.0 - - 10 - - - -
19/07:30pm 20.6 NNE 19 24 1021.9 - 0.0 - - 10 - - - -
19/07:00pm 21.1 NNE 18 23 1021.6 - 0.0 - - 10 - - - -
19/06:30pm 21.6 NE 17 21 1021.4 - 0.0 - - 10 - - - -
19/06:00pm 22.3 NE 17 20 1021.3 F 0.0 Fine Mostly clear 30 - - - -
19/05:30pm 22.8 NE 19 22 1021.4 - 0.0 - - 10 - - - -
19/05:00pm 23.0 NE 18 22 1021.4 - 0.0 - - 10 - - - -
19/04:30pm 23.9 NE 19 22 1021.5 - 0.0 - - 10 - - - -
19/04:00pm 24.1 NE 17 19 1021.6 - 0.0 - - 10 - - - -
19/03:30pm 24.1 NE 16 19 1022.0 - 0.0 - - 10 - - - -
19/03:00pm 25.1 NNE 18 20 1022.2 F 0.0 Fine Mostly clear 30 - - - -
19/02:30pm 25.0 NE 15 18 1022.8 - 0.0 - - 10 - - - -
19/02:00pm 24.5 NE 16 19 1023.1 - 0.0 - - 10 - - - -
19/01:30pm 24.7 NE 14 17 1023.6 - 0.0 - - 10 - - - -
19/01:00pm 24.6 NE 13 16 1023.9 - 0.0 - - 10 - - - -
19/12:30pm 24.4 NNE 10 14 1024.4 - 0.0 - - 10 - - - -
19/12:00pm 24.3 NE 8 11 1024.8 F 0.0 Fine Mostly clear 30 - - - -
19/11:30am 24.2 N 8 12 1025.5 - 0.0 - - 10 - - - -
19/11:00am 23.6 NNW 10 16 1026.1 - 0.0 - - 10 - - - -
19/10:30am 22.0 NNW 9 14 1026.8 - 0.0 - - 10 - - - -
19/10:00am 21.0 NW 8 12 1027.3 - 0.0 - - 10 - - - -
19/09:30am 19.7 WNW 7 10 1027.6 - 0.0 - - 10 - - - -
19/09:00am 18.1 NNW 7 9 1027.5 F 0.0 Fine Mostly clear 30 - - - -
19/08:30am 16.4 NW 7 10 1027.5 - 0.0 - - 10 - - - -
19/08:00am 15.2 WNW 9 12 1027.6 - 0.0 - Mostly clear 10 - - - -
19/07:30am 14.8 NW 6 8 1027.4 - 0.0 - Mostly clear 10 - - - -
19/07:00am 14.3 N 6 6 1027.1 - 0.0 - Mostly clear 10 - - - -
19/06:30am 14.2 N 6 7 1026.9 - 0.0 - Mostly clear 10 - - - -
19/06:00am 13.9 N 6 7 1026.8 F 0.0 Fine Mostly clear 30 - - - -
19/05:30am 13.8 N 5 6 1026.6 - 0.0 - Mostly clear 10 - - - -
19/05:00am 13.6 N 5 6 1026.8 - 0.0 - - 10 - - - -
19/04:30am 13.7 N 6 7 1026.9 - 0.0 - - 10 - - - -
19/04:00am 13.9 N 6 7 1027.1 - 0.0 - - 10 - - - -
19/03:30am 13.9 N 7 8 1027.1 - 0.0 - - 10 - - - -
19/03:00am 14.1 N 7 8 1027.1 F 0.0 Fine Clear 30 - - - -
19/02:30am 14.6 NNW 5 6 1027.4 - 0.0 - - 10 - - - -
19/02:00am 14.8 N 5 6 1027.4 - 0.0 - - 10 - - - -
19/01:30am 15.2 N 6 6 1027.8 - 0.0 - - 10 - - - -
19/01:00am 15.4 NW 5 6 1028.4 - 0.0 - - 10 - - - -
19/12:30am 15.6 NW 6 7 1028.5 - 0.0 - - 10 - - - -
19/12:00am 16.5 NW 7 8 1028.4 F 0.0 Fine Clear 30 - - - -
 
Date/Time
EDT
Temp

°C
Wind Pressure Rain
since 9am
mm
Weather Cloud Vis
km
Sea
Height
m
Swell
Dir
 
Speed
knots
Gust
knots
hPa Trend Height
m
Period
s
Dir
18/11:30pm 16.8 NW 7 9 1028.4 - 0.0 - - 10 - - - -
18/11:00pm 17.1 N 6 7 1028.4 - 0.0 - - 10 - - - -
18/10:30pm 17.9 NNE 6 8 1028.6 - 0.0 - - 10 - - - -
18/10:00pm 17.0 NNE 6 8 1028.8 - 0.0 - - 10 - - - -
18/09:30pm 17.5 NNE 8 10 1028.7 - 0.0 - - 10 - - - -
18/09:00pm 17.0 NE 9 11 1028.4 S 0.0 Fine Clear 40 - - - -
18/08:30pm 17.4 NE 9 12 1028.0 - 0.0 - - 10 - - - -
18/08:00pm 17.1 NE 9 11 1027.7 - 0.0 - - 10 - - - -
18/07:30pm 17.7 NE 9 11 1027.6 - 0.0 - - 10 - - - -
18/07:00pm 18.0 NE 12 16 1027.1 - 0.0 - - 10 - - - -
18/06:30pm 18.3 ENE 14 17 1026.9 - 0.0 - - 10 - - - -

Other Formats:

Comma delimited format used in spreadsheet applications
http://www.bom.gov.au/fwo/IDN60701/IDN60701.94767.axf

JavaScript Object Notation format (JSON) in row-major order
http://www.bom.gov.au/fwo/IDN60701/IDN60701.94767.json